Time;durP1;ratioP1;P1;durP2;ratioP2;P2;SDS_P1;SDS_P2;PMS_P1;PMS_P2;Temp;Humidity;BMP_temperature;BMP_pressure;BME280_temperature;BME280_humidity;BME280_pressure;Samples;Min_cycle;Max_cycle;Signal;HPM_P1;HPM_P2
2022/06/22 00:00:24;;;;;;;9.33;5.30;;;15.80;1.00;;;;;;5094221;28;20204;-68
2022/06/22 00:05:38;;;;;;;6.73;5.20;;;15.80;1.00;;;;;;5110870;27;20617;-68
2022/06/22 00:08:10;;;;;;;9.23;5.43;;;15.80;1.00;;;;;;5111363;28;20508;-68
2022/06/22 00:10:44;;;;;;;12.00;5.50;;;15.70;1.00;;;;;;5110899;28;20195;-67
2022/06/22 00:13:36;;;;;;;9.50;5.80;;;15.70;1.00;;;;;;5111179;28;20190;-68
2022/06/22 00:16:15;;;;;;;13.67;6.37;;;15.70;1.00;;;;;;5108107;28;20271;-67
2022/06/22 00:18:45;;;;;;;10.67;6.60;;;15.70;1.00;;;;;;5111075;28;20167;-67
2022/06/22 00:21:14;;;;;;;11.97;6.97;;;15.80;1.00;;;;;;5110995;28;20193;-67
2022/06/22 00:23:44;;;;;;;7.53;6.10;;;15.80;1.00;;;;;;5110990;28;20205;-67
2022/06/22 00:26:18;;;;;;;12.07;6.10;;;15.70;1.00;;;;;;5110783;28;20661;-67
2022/06/22 00:29:00;;;;;;;8.53;5.70;;;15.60;1.00;;;;;;5109537;28;20579;-68
2022/06/22 00:31:37;;;;;;;9.10;5.70;;;15.60;1.00;;;;;;5110750;28;20220;-67
2022/06/22 00:34:10;;;;;;;8.27;5.80;;;15.60;1.00;;;;;;5110991;28;20171;-67
2022/06/22 00:36:50;;;;;;;11.33;5.73;;;15.50;1.00;;;;;;5110717;28;20198;-67
2022/06/22 00:39:28;;;;;;;13.53;5.93;;;15.50;1.00;;;;;;5110345;28;20167;-68
2022/06/22 00:41:54;;;;;;;8.50;6.00;;;15.40;1.00;;;;;;5110593;28;20214;-68
2022/06/22 00:44:20;;;;;;;8.77;5.77;;;15.40;1.00;;;;;;5110484;28;20260;-67
2022/06/22 00:47:04;;;;;;;7.97;5.77;;;15.30;5.00;;;;;;5110474;28;20488;-67
2022/06/22 00:49:31;;;;;;;7.23;5.60;;;15.30;8.10;;;;;;5110691;28;20183;-67
2022/06/22 00:52:05;;;;;;;7.90;5.77;;;15.30;9.10;;;;;;5110319;28;20173;-68
2022/06/22 00:54:33;;;;;;;13.30;5.83;;;15.10;12.90;;;;;;5110009;28;20211;-68
2022/06/22 00:57:01;;;;;;;6.70;6.03;;;15.20;8.40;;;;;;5110270;28;20160;-68
2022/06/22 00:59:46;;;;;;;8.63;5.93;;;15.20;7.50;;;;;;5110143;28;20191;-67
2022/06/22 01:02:23;;;;;;;7.80;5.73;;;15.10;9.40;;;;;;5110271;28;20200;-67
2022/06/22 01:05:12;;;;;;;9.07;6.20;;;15.00;12.30;;;;;;5109829;28;20322;-67
2022/06/22 01:08:04;;;;;;;11.33;6.70;;;15.00;15.10;;;;;;5071768;28;20195;-67
2022/06/22 01:10:33;;;;;;;8.73;6.50;;;15.00;13.90;;;;;;5109506;28;20219;-67
2022/06/22 01:13:07;;;;;;;10.20;6.97;;;14.90;11.70;;;;;;5109987;28;20680;-67
2022/06/22 01:15:41;;;;;;;11.60;6.83;;;14.90;11.20;;;;;;5103555;28;20195;-68
2022/06/22 01:18:15;;;;;;;9.30;6.70;;;14.80;12.60;;;;;;5096414;28;20530;-67
2022/06/22 01:21:08;;;;;;;7.57;6.70;;;14.80;13.90;;;;;;5096444;28;20174;-68
2022/06/22 01:23:49;;;;;;;9.83;7.27;;;14.80;16.80;;;;;;5095778;28;20196;-68
2022/06/22 01:26:47;;;;;;;10.27;7.47;;;14.80;17.70;;;;;;5096164;28;20175;-66
2022/06/22 01:29:22;;;;;;;8.80;6.70;;;14.80;17.60;;;;;;5096050;28;20176;-66
2022/06/22 01:31:57;;;;;;;9.77;6.90;;;14.80;18.40;;;;;;5096081;28;20229;-67
2022/06/22 01:34:25;;;;;;;12.33;6.93;;;14.80;18.80;;;;;;5095967;28;20182;-67
2022/06/22 01:36:51;;;;;;;9.40;6.90;;;14.90;16.60;;;;;;5095576;28;20308;-66
2022/06/22 01:39:16;;;;;;;13.77;7.57;;;14.90;13.60;;;;;;5095870;28;20238;-67
2022/06/22 01:41:49;;;;;;;10.33;6.80;;;14.70;22.40;;;;;;5095814;28;20176;-67
2022/06/22 01:44:28;;;;;;;15.70;7.57;;;14.60;28.40;;;;;;5095712;28;20203;-67
2022/06/22 01:47:17;;;;;;;15.57;7.53;;;14.60;32.10;;;;;;5095727;28;20179;-67
2022/06/22 01:50:12;;;;;;;13.40;7.30;;;14.60;31.70;;;;;;5095711;28;20176;-67
2022/06/22 01:52:41;;;;;;;20.47;8.03;;;14.60;36.10;;;;;;5023372;28;20247;-68
2022/06/22 01:55:35;;;;;;;13.67;7.80;;;14.60;40.90;;;;;;5095671;28;20168;-67
2022/06/22 01:58:19;;;;;;;14.53;7.37;;;14.50;40.30;;;;;;5095380;28;20196;-67
2022/06/22 02:00:54;;;;;;;13.70;7.23;;;14.50;42.10;;;;;;5095659;28;20170;-67
2022/06/22 02:03:28;;;;;;;11.23;7.57;;;14.30;47.00;;;;;;5095266;28;20259;-67
2022/06/22 02:05:58;;;;;;;15.23;7.27;;;14.20;52.20;;;;;;5094943;28;20187;-67
2022/06/22 02:08:32;;;;;;;9.93;7.13;;;14.10;57.80;;;;;;5095104;28;20225;-67
2022/06/22 02:11:09;;;;;;;12.10;7.83;;;14.10;60.10;;;;;;5095226;28;20541;-67
2022/06/22 02:13:38;;;;;;;10.43;7.20;;;14.10;59.80;;;;;;5095101;28;20199;-67
2022/06/22 02:16:21;;;;;;;15.90;8.03;;;14.10;60.60;;;;;;5093860;28;20582;-67
2022/06/22 02:18:58;;;;;;;10.87;7.73;;;14.10;61.70;;;;;;5094959;28;20255;-67
2022/06/22 02:21:31;;;;;;;11.80;7.57;;;14.10;63.40;;;;;;5094896;28;20172;-67
2022/06/22 02:24:06;;;;;;;10.90;8.00;;;14.00;66.50;;;;;;5095043;28;20199;-67
2022/06/22 02:26:35;;;;;;;9.13;8.13;;;14.10;66.40;;;;;;5094346;28;20642;-67
2022/06/22 02:29:02;;;;;;;12.60;8.73;;;14.00;67.70;;;;;;5094393;28;20180;-67
2022/06/22 02:31:28;;;;;;;10.10;7.97;;;14.00;69.40;;;;;;5094809;28;20228;-67
2022/06/22 02:33:55;;;;;;;12.47;8.33;;;14.00;70.20;;;;;;5094969;28;20164;-67
2022/06/22 02:36:25;;;;;;;11.40;8.70;;;14.00;72.30;;;;;;5094583;28;20187;-67
2022/06/22 02:38:55;;;;;;;12.90;8.33;;;14.00;73.10;;;;;;5094784;28;20195;-67
2022/06/22 02:44:42;;;;;;;10.97;8.17;;;13.90;76.50;;;;;;5073418;28;20613;-67
2022/06/22 02:47:22;;;;;;;12.23;8.77;;;14.00;76.70;;;;;;5090664;28;20184;-67
2022/06/22 02:49:54;;;;;;;12.63;9.20;;;13.90;77.10;;;;;;5094180;28;20201;-67
2022/06/22 02:52:23;;;;;;;14.17;9.40;;;14.00;78.40;;;;;;5094337;28;20176;-66
2022/06/22 02:54:55;;;;;;;15.73;8.93;;;14.00;74.70;;;;;;5094464;28;20194;-68
2022/06/22 02:57:39;;;;;;;15.80;9.63;;;14.00;75.20;;;;;;5094516;28;20247;-68
2022/06/22 03:00:06;;;;;;;15.33;9.03;;;14.00;78.70;;;;;;5094475;28;20183;-68
2022/06/22 03:02:32;;;;;;;16.60;9.07;;;14.00;78.10;;;;;;5094319;28;20226;-68
2022/06/22 03:05:00;;;;;;;12.90;9.33;;;13.90;84.50;;;;;;5093490;28;20227;-68
2022/06/22 03:07:26;;;;;;;14.60;9.83;;;13.90;86.00;;;;;;5094349;28;20207;-67
2022/06/22 03:09:52;;;;;;;14.73;9.80;;;13.90;90.00;;;;;;5094190;28;20175;-66
2022/06/22 03:12:18;;;;;;;13.57;10.57;;;13.90;90.30;;;;;;5093944;28;20164;-67
2022/06/22 03:14:57;;;;;;;15.37;9.83;;;13.90;90.10;;;;;;5093904;28;20526;-67
2022/06/22 03:17:35;;;;;;;17.27;10.27;;;13.80;90.90;;;;;;5093663;28;20178;-67
2022/06/22 03:20:12;;;;;;;13.40;10.27;;;13.80;92.50;;;;;;5093558;28;20180;-67
2022/06/22 03:22:45;;;;;;;13.57;10.27;;;13.80;93.60;;;;;;5093895;28;20537;-68
2022/06/22 03:25:11;;;;;;;12.97;10.17;;;13.70;94.10;;;;;;5093784;28;20211;-67
2022/06/22 03:27:42;;;;;;;15.17;10.00;;;13.70;95.00;;;;;;5093631;28;20537;-68
2022/06/22 03:30:30;;;;;;;11.47;9.80;;;13.70;95.60;;;;;;5093528;28;20233;-67
2022/06/22 03:33:05;;;;;;;13.53;9.73;;;13.70;96.20;;;;;;5093139;28;20191;-68
2022/06/22 03:35:36;;;;;;;15.53;11.30;;;13.80;96.20;;;;;;5093494;28;20250;-68
2022/06/22 03:38:13;;;;;;;12.53;10.37;;;13.70;96.80;;;;;;5093524;28;20168;-67
2022/06/22 03:41:05;;;;;;;12.90;10.70;;;13.70;97.40;;;;;;5093176;28;20164;-67
2022/06/22 03:43:49;;;;;;;11.90;10.73;;;13.80;97.40;;;;;;5093388;28;20651;-67
2022/06/22 03:46:50;;;;;;;13.10;10.27;;;13.70;97.60;;;;;;5093402;28;20269;-68
2022/06/22 03:49:31;;;;;;;14.43;10.60;;;13.80;98.20;;;;;;5050789;28;20175;-67
2022/06/22 03:52:17;;;;;;;11.10;10.00;;;14.00;96.20;;;;;;5093150;28;20171;-67
2022/06/22 03:54:45;;;;;;;12.93;11.47;;;14.10;94.10;;;;;;5092823;28;20535;-67
2022/06/22 03:57:14;;;;;;;12.87;10.57;;;14.40;90.80;;;;;;5093260;28;20274;-68
2022/06/22 03:59:44;;;;;;;17.33;10.50;;;14.70;84.20;;;;;;5092797;28;20776;-67
2022/06/22 04:02:10;;;;;;;13.33;10.40;;;14.90;61.50;;;;;;5092989;28;20180;-68
2022/06/22 04:04:36;;;;;;;13.27;10.27;;;15.20;50.90;;;;;;5092533;28;20231;-66
2022/06/22 04:07:02;;;;;;;15.20;10.17;;;15.50;42.80;;;;;;5092932;28;20645;-66
2022/06/22 04:09:29;;;;;;;10.93;9.20;;;15.60;30.50;;;;;;5092904;28;20174;-67
2022/06/22 04:12:01;;;;;;;15.20;10.43;;;15.50;38.20;;;;;;5092425;28;20206;-68
2022/06/22 04:14:29;;;;;;;14.60;9.50;;;15.50;41.40;;;;;;5092824;28;20179;-67
2022/06/22 04:17:05;;;;;;;11.40;9.60;;;15.90;32.60;;;;;;5092923;28;20176;-68
2022/06/22 04:19:40;;;;;;;11.87;9.33;;;16.00;22.70;;;;;;5092882;28;20178;-68
2022/06/22 04:22:21;;;;;;;12.20;9.17;;;16.10;18.20;;;;;;5093096;28;20627;-67
2022/06/22 04:25:01;;;;;;;13.60;9.23;;;16.20;16.80;;;;;;5092341;28;20282;-68
2022/06/22 04:27:37;;;;;;;13.63;8.90;;;16.40;7.40;;;;;;5092796;28;20164;-67
2022/06/22 04:30:11;;;;;;;10.20;9.03;;;17.10;1.00;;;;;;5092958;28;20176;-66
2022/06/22 04:32:59;;;;;;;11.87;8.10;;;17.60;1.00;;;;;;5092044;28;20164;-66
2022/06/22 04:35:28;;;;;;;12.13;8.30;;;17.90;1.00;;;;;;5092759;28;20180;-66
2022/06/22 04:38:03;;;;;;;12.82;8.63;;;18.90;1.00;;;;;;5092731;28;20204;-67
2022/06/22 04:41:24;;;;;;;10.88;8.13;;;19.20;1.00;;;;;;5092623;28;20252;-68
2022/06/22 04:43:51;;;;;;;10.10;8.10;;;19.50;1.00;;;;;;5047755;28;20211;-67
2022/06/22 04:46:30;;;;;;;12.68;8.60;;;20.40;1.00;;;;;;5092571;28;20199;-67
2022/06/22 04:49:01;;;;;;;10.55;8.38;;;20.40;99.90;;;;;;5092345;28;20164;-67
2022/06/22 04:51:32;;;;;;;20.80;9.70;;;20.00;1.00;;;;;;5094359;28;20236;-66
2022/06/22 04:54:05;;;;;;;12.75;8.70;;;19.80;1.00;;;;;;5095617;28;20568;-67
2022/06/22 04:56:38;;;;;;;13.82;9.32;;;20.00;1.00;;;;;;5096546;28;20176;-66
2022/06/22 04:59:07;;;;;;;14.40;8.88;;;21.10;1.00;;;;;;5096083;28;20200;-68
2022/06/22 05:01:50;;;;;;;14.13;8.43;;;21.40;99.90;;;;;;5095506;28;20642;-68
2022/06/22 05:04:22;;;;;;;13.15;8.98;;;22.20;1.00;;;;;;5095573;28;20361;-68
2022/06/22 05:07:20;;;;;;;10.15;8.45;;;22.30;1.00;;;;;;5096189;28;20213;-68
2022/06/22 05:10:00;;;;;;;10.55;8.75;;;22.20;1.00;;;;;;5095540;28;20516;-67
2022/06/22 05:12:29;;;;;;;9.48;8.15;;;21.60;99.90;;;;;;5095409;28;20170;-67
2022/06/22 05:14:57;;;;;;;16.00;9.00;;;21.70;99.90;;;;;;5095423;28;20580;-68
2022/06/22 05:17:28;;;;;;;17.15;9.30;;;21.20;1.00;;;;;;5095209;28;20206;-68
2022/06/22 05:20:15;;;;;;;13.20;8.65;;;20.90;1.00;;;;;;5095508;28;20657;-68
2022/06/22 05:22:41;;;;;;;12.63;9.15;;;20.70;99.90;;;;;;5095703;28;20176;-68
2022/06/22 05:25:11;;;;;;;12.80;8.90;;;22.00;1.00;;;;;;5094954;28;20207;-69
2022/06/22 05:27:45;;;;;;;13.18;9.07;;;22.50;99.90;;;;;;5095039;28;20245;-69
2022/06/22 05:30:10;;;;;;;10.50;8.88;;;23.00;1.00;;;;;;5095009;28;20175;-69
2022/06/22 05:32:44;;;;;;;10.10;9.02;;;23.40;1.00;;;;;;5095083;28;20634;-70
2022/06/22 05:35:14;;;;;;;12.13;9.02;;;23.20;1.00;;;;;;5094688;28;20171;-69
2022/06/22 05:37:45;;;;;;;15.20;9.13;;;22.40;24.10;;;;;;5095107;28;20201;-69
2022/06/22 05:40:13;;;;;;;16.55;9.70;;;22.50;1.00;;;;;;5095081;28;20176;-69
2022/06/22 05:42:38;;;;;;;13.52;9.85;;;22.40;1.00;;;;;;5094988;28;20168;-69
2022/06/22 05:45:16;;;;;;;13.98;9.13;;;22.50;99.90;;;;;;5094174;28;20653;-69
2022/06/22 05:47:43;;;;;;;15.88;9.45;;;22.40;99.90;;;;;;5094784;28;20167;-69
2022/06/22 05:50:22;;;;;;;11.20;9.55;;;21.90;1.00;;;;;;5094440;28;20333;-69
2022/06/22 05:52:53;;;;;;;11.48;9.27;;;22.70;1.00;;;;;;5093304;28;20164;-69
2022/06/22 05:55:36;;;;;;;10.27;9.18;;;23.40;1.00;;;;;;5094472;28;20180;-69
2022/06/22 05:58:13;;;;;;;13.30;9.23;;;23.00;99.90;;;;;;5093724;28;20188;-69
2022/06/22 06:00:47;;;;;;;10.70;8.98;;;23.60;1.00;;;;;;5094612;28;20186;-69
2022/06/22 06:03:42;;;;;;;13.95;9.68;;;23.90;1.00;;;;;;5094704;28;20182;-70
2022/06/22 06:06:12;;;;;;;15.27;9.20;;;24.30;1.00;;;;;;5094421;28;20188;-69
2022/06/22 06:08:46;;;;;;;11.65;9.23;;;24.00;1.00;;;;;;5094499;28;20176;-70
2022/06/22 06:11:20;;;;;;;9.63;8.82;;;23.60;99.90;;;;;;5093508;28;20178;-69
2022/06/22 06:13:50;;;;;;;14.05;9.40;;;23.60;1.00;;;;;;5093553;28;20163;-69
2022/06/22 06:16:26;;;;;;;12.30;9.70;;;23.00;1.00;;;;;;5092836;28;20175;-69
2022/06/22 06:18:55;;;;;;;11.75;9.70;;;22.50;1.00;;;;;;5094142;28;20180;-69
2022/06/22 06:21:24;;;;;;;10.20;9.13;;;21.30;1.00;;;;;;5094281;28;20274;-68
2022/06/22 06:24:19;;;;;;;11.90;9.85;;;21.30;99.90;;;;;;5093588;28;20199;-68
2022/06/22 06:30:30;;;;;;;12.77;9.52;;;21.60;1.00;;;;;;5093636;28;20294;-69
2022/06/22 06:33:01;;;;;;;12.18;9.65;;;22.10;99.90;;;;;;5093492;28;20211;-68
2022/06/22 06:35:32;;;;;;;13.18;9.85;;;23.00;99.90;;;;;;5093333;28;20168;-69
2022/06/22 06:38:14;;;;;;;19.40;9.90;;;23.10;1.00;;;;;;5093069;28;20176;-69
2022/06/22 06:40:53;;;;;;;14.52;9.48;;;23.60;1.00;;;;;;5093707;28;20163;-70
2022/06/22 06:43:36;;;;;;;19.25;10.30;;;24.30;42.80;;;;;;5093714;28;20172;-69
2022/06/22 06:46:05;;;;;;;16.45;10.05;;;24.40;1.00;;;;;;5092518;28;20187;-70
2022/06/22 06:48:32;;;;;;;13.77;9.90;;;24.30;1.00;;;;;;5079622;28;20221;-69
2022/06/22 06:51:01;;;;;;;12.40;8.90;;;24.10;6.50;;;;;;5075849;28;20281;-68
2022/06/22 06:53:43;;;;;;;13.32;9.18;;;23.20;1.00;;;;;;5079856;28;20200;-70
2022/06/22 06:56:24;;;;;;;12.85;9.30;;;23.40;99.90;;;;;;5092632;28;20202;-70
2022/06/22 06:58:55;;;;;;;16.50;9.23;;;24.20;1.00;;;;;;5092758;28;20191;-69
2022/06/22 07:01:26;;;;;;;17.65;9.32;;;25.00;99.90;;;;;;5091113;28;20172;-70
2022/06/22 07:03:57;;;;;;;16.02;9.15;;;26.40;1.00;;;;;;5071166;28;20239;-71
2022/06/22 07:06:22;;;;;;;12.68;8.05;;;27.40;99.90;;;;;;5080117;28;20179;-70
2022/06/22 07:09:11;;;;;;;14.85;8.48;;;28.20;99.90;;;;;;5092320;28;20160;-69
2022/06/22 07:11:51;;;;;;;10.82;7.63;;;28.90;99.90;;;;;;5091828;28;20163;-69
2022/06/22 07:14:30;;;;;;;13.20;8.00;;;28.60;99.90;;;;;;5091446;28;20179;-69
2022/06/22 07:17:02;;;;;;;10.00;8.05;;;27.50;99.90;;;;;;5092243;28;20523;-69
2022/06/22 07:19:53;;;;;;;12.73;8.60;;;26.00;99.90;;;;;;5092514;28;20172;-69
2022/06/22 07:23:05;;;;;;;13.00;8.52;;;24.90;1.00;;;;;;5091435;28;20186;-69
2022/06/22 07:25:46;;;;;;;12.80;8.20;;;25.50;1.00;;;;;;5090494;28;20752;-70
2022/06/22 07:28:40;;;;;;;17.88;9.82;;;25.80;1.00;;;;;;5092577;28;20175;-70
2022/06/22 07:31:20;;;;;;;13.00;8.88;;;27.10;99.90;;;;;;5092166;28;20207;-70
2022/06/22 07:33:47;;;;;;;12.68;8.00;;;25.90;99.90;;;;;;5092275;28;20206;-70
2022/06/22 07:36:20;;;;;;;15.38;8.45;;;24.80;1.00;;;;;;5092136;28;20176;-70
2022/06/22 07:39:01;;;;;;;12.32;7.55;;;25.20;1.00;;;;;;5092281;28;20213;-70
2022/06/22 07:41:29;;;;;;;12.52;7.32;;;26.20;1.00;;;;;;5092763;28;20176;-71
2022/06/22 07:43:54;;;;;;;14.43;7.28;;;27.40;99.90;;;;;;5092056;28;20219;-72
2022/06/22 07:46:39;;;;;;;9.18;7.13;;;27.20;99.90;;;;;;5093145;28;20616;-71
2022/06/22 07:49:17;;;;;;;8.10;7.35;;;26.60;99.90;;;;;;5093040;28;20229;-70
2022/06/22 07:51:52;;;;;;;11.27;7.38;;;27.20;99.90;;;;;;5092305;28;20167;-71
2022/06/22 07:54:38;;;;;;;15.25;8.18;;;27.80;99.90;;;;;;5091497;28;20175;-71
2022/06/22 07:57:23;;;;;;;11.52;7.38;;;26.90;99.90;;;;;;5092264;28;20553;-72
2022/06/22 08:00:00;;;;;;;11.07;7.70;;;27.40;99.90;;;;;;5091974;28;20263;-72
2022/06/22 08:02:51;;;;;;;12.35;7.60;;;27.60;99.90;;;;;;5092260;28;20243;-71
2022/06/22 08:05:21;;;;;;;13.38;7.53;;;27.80;99.90;;;;;;5092411;28;20760;-71
2022/06/22 08:07:53;;;;;;;8.98;6.50;;;27.80;99.90;;;;;;5092189;28;20255;-71
2022/06/22 08:10:21;;;;;;;12.65;7.35;;;27.60;99.90;;;;;;5092183;28;20631;-71
2022/06/22 08:12:52;;;;;;;11.32;7.00;;;28.40;99.90;;;;;;5092564;28;20178;-72
2022/06/22 08:15:21;;;;;;;7.35;6.32;;;29.60;99.90;;;;;;5088904;28;20192;-71
2022/06/22 08:17:53;;;;;;;7.35;6.57;;;29.20;99.90;;;;;;5075376;28;20210;-72
2022/06/22 08:20:30;;;;;;;10.20;6.78;;;29.20;99.90;;;;;;5072339;28;20179;-71
2022/06/22 08:22:58;;;;;;;13.23;6.20;;;31.00;99.90;;;;;;5071753;28;20172;-72
2022/06/22 08:25:24;;;;;;;9.32;6.50;;;29.70;99.90;;;;;;5072718;28;20687;-72
2022/06/22 08:27:52;;;;;;;7.63;6.32;;;28.80;99.90;;;;;;5075718;28;20222;-71
2022/06/22 08:30:19;;;;;;;10.60;6.50;;;27.30;99.90;;;;;;5076617;28;20265;-71
2022/06/22 08:33:03;;;;;;;9.45;6.72;;;28.40;99.90;;;;;;5081003;28;20255;-71
2022/06/22 08:35:38;;;;;;;10.68;7.05;;;28.80;99.90;;;;;;5075546;28;20238;-71
2022/06/22 08:38:10;;;;;;;7.88;6.30;;;29.20;99.90;;;;;;5075673;28;20164;-72
2022/06/22 08:40:47;;;;;;;8.65;6.20;;;29.30;99.90;;;;;;5075860;28;20352;-71
2022/06/22 08:43:33;;;;;;;14.02;7.40;;;29.80;99.90;;;;;;5075854;28;20636;-72
2022/06/22 08:46:11;;;;;;;10.70;6.28;;;30.60;99.90;;;;;;5075941;28;20180;-72
2022/06/22 08:48:53;;;;;;;13.10;6.30;;;31.70;99.90;;;;;;5075274;28;20168;-72
2022/06/22 08:51:37;;;;;;;10.00;5.90;;;29.80;99.90;;;;;;5075656;28;20181;-72
2022/06/22 08:54:08;;;;;;;15.25;6.55;;;29.50;99.90;;;;;;5074321;28;20169;-73
2022/06/22 08:56:51;;;;;;;8.52;5.10;;;29.70;99.90;;;;;;5075780;28;20172;-72
2022/06/22 08:59:39;;;;;;;9.30;5.45;;;30.20;99.90;;;;;;5074992;28;20531;-72
2022/06/22 09:02:22;;;;;;;6.88;5.70;;;30.80;99.90;;;;;;5075817;28;20235;-71
2022/06/22 09:05:12;;;;;;;12.63;5.80;;;29.90;99.90;;;;;;5073858;28;20667;-71
2022/06/22 09:07:44;;;;;;;8.15;5.90;;;29.20;99.90;;;;;;5081221;28;20210;-71
2022/06/22 09:10:30;;;;;;;8.50;5.55;;;29.90;99.90;;;;;;5094654;28;20187;-71
2022/06/22 09:12:59;;;;;;;10.35;5.40;;;31.10;99.90;;;;;;5074842;28;20173;-72
2022/06/22 09:15:53;;;;;;;12.65;6.50;;;31.00;99.90;;;;;;5075500;28;20168;-71
2022/06/22 09:18:28;;;;;;;8.57;6.47;;;30.30;99.90;;;;;;5075131;28;20176;-72
2022/06/22 09:21:35;;;;;;;8.20;6.00;;;29.10;99.90;;;;;;5078391;28;20179;-72
2022/06/22 09:24:07;;;;;;;6.80;6.00;;;29.60;99.90;;;;;;5079120;28;20254;-72
2022/06/22 09:26:41;;;;;;;12.75;5.90;;;29.30;99.90;;;;;;5095496;28;20183;-72
2022/06/22 09:29:31;;;;;;;8.05;5.10;;;29.00;99.90;;;;;;5091838;28;20178;-71
2022/06/22 09:32:40;;;;;;;11.02;6.18;;;30.00;99.90;;;;;;5079972;28;20200;-71
2022/06/22 09:35:37;;;;;;;10.90;6.22;;;28.80;99.90;;;;;;5060160;28;20181;-70
2022/06/22 09:38:27;;;;;;;10.65;5.97;;;29.90;99.90;;;;;;5074200;28;20270;-71
2022/06/22 09:41:17;;;;;;;8.00;6.20;;;29.20;99.90;;;;;;5074870;28;20218;-71
2022/06/22 09:44:03;;;;;;;10.15;5.70;;;28.80;99.90;;;;;;5091414;28;20191;-72
2022/06/22 09:46:38;;;;;;;13.18;7.25;;;29.00;99.90;;;;;;5094465;28;20606;-71
2022/06/22 09:49:37;;;;;;;9.43;6.57;;;29.50;99.90;;;;;;5094703;28;20166;-71
2022/06/22 09:52:12;;;;;;;8.85;5.15;;;28.80;99.90;;;;;;5092951;28;20198;-71
2022/06/22 09:58:01;;;;;;;6.72;4.50;;;30.10;99.90;;;;;;5094934;28;20598;-71
2022/06/22 10:01:06;;;;;;;6.40;4.60;;;30.60;99.90;;;;;;5094603;28;20650;-71
2022/06/22 10:04:05;;;;;;;6.72;4.70;;;31.00;99.90;;;;;;5094615;28;20183;-71
2022/06/22 10:06:58;;;;;;;7.97;4.65;;;31.00;99.90;;;;;;5094388;28;20187;-71
2022/06/22 10:10:02;;;;;;;6.55;4.95;;;32.20;99.90;;;;;;5094436;28;20183;-71
2022/06/22 10:12:30;;;;;;;11.75;5.18;;;29.90;99.90;;;;;;5021727;28;20209;-72
2022/06/22 10:15:05;;;;;;;5.70;4.28;;;30.30;99.90;;;;;;5094351;28;20165;-71
2022/06/22 10:17:51;;;;;;;5.25;4.70;;;31.00;99.90;;;;;;5094688;28;20176;-72
2022/06/22 10:20:28;;;;;;;7.88;4.72;;;30.10;99.90;;;;;;5093700;28;20232;-72
2022/06/22 10:23:13;;;;;;;5.53;4.50;;;29.90;99.90;;;;;;5093827;28;20168;-72
2022/06/22 10:25:59;;;;;;;7.00;5.50;;;29.90;99.90;;;;;;5093493;28;20214;-72
2022/06/22 10:28:42;;;;;;;9.77;4.70;;;29.70;99.90;;;;;;5094830;28;20623;-71
2022/06/22 10:31:22;;;;;;;5.15;4.45;;;30.50;99.90;;;;;;5094188;28;20199;-71
2022/06/22 10:34:27;;;;;;;9.40;4.88;;;29.90;99.90;;;;;;5093672;28;20218;-72
2022/06/22 10:37:12;;;;;;;8.40;4.90;;;30.70;99.90;;;;;;5092639;28;20168;-72
2022/06/22 10:39:40;;;;;;;8.15;5.40;;;29.80;99.90;;;;;;5093510;28;20156;-70
2022/06/22 10:45:40;;;;;;;7.55;4.60;;;28.60;99.90;;;;;;5094084;28;20249;-71
2022/06/22 10:48:18;;;;;;;6.80;4.50;;;29.00;99.90;;;;;;5091625;28;20254;-72
2022/06/22 10:51:00;;;;;;;6.53;4.60;;;29.30;99.90;;;;;;5092840;28;20167;-71
2022/06/22 10:53:43;;;;;;;7.32;4.65;;;28.50;99.90;;;;;;5093377;28;20176;-72
2022/06/22 10:56:48;;;;;;;7.72;4.53;;;29.30;99.90;;;;;;5093542;28;20170;-71
2022/06/22 10:59:38;;;;;;;10.00;4.68;;;28.90;99.90;;;;;;5093312;28;20202;-71
2022/06/22 11:02:41;;;;;;;6.75;4.60;;;29.10;99.90;;;;;;5093077;28;20164;-70
2022/06/22 11:05:35;;;;;;;7.10;4.43;;;29.30;99.90;;;;;;5092877;28;20261;-70
2022/06/22 11:08:27;;;;;;;6.45;4.07;;;29.10;99.90;;;;;;5092563;28;20160;-71
2022/06/22 11:11:29;;;;;;;4.88;4.28;;;28.60;99.90;;;;;;5092830;28;20156;-70
2022/06/22 11:14:19;;;;;;;6.72;4.40;;;28.50;99.90;;;;;;5093233;28;20172;-71
2022/06/22 11:16:58;;;;;;;5.85;4.45;;;28.30;99.90;;;;;;5093346;28;20172;-71
2022/06/22 11:19:35;;;;;;;7.25;3.88;;;28.00;99.90;;;;;;5093266;28;20191;-69
2022/06/22 11:22:01;;;;;;;8.40;4.07;;;28.10;99.90;;;;;;5093350;28;20164;-71
2022/06/22 11:24:55;;;;;;;6.75;3.53;;;28.60;99.90;;;;;;5093277;28;20266;-70
2022/06/22 11:30:51;;;;;;;10.20;4.43;;;28.70;99.90;;;;;;5093613;28;20198;-70
2022/06/22 11:33:31;;;;;;;5.85;4.30;;;27.10;99.90;;;;;;5092623;28;20164;-70
2022/06/22 11:36:05;;;;;;;6.75;4.20;;;27.40;99.90;;;;;;5093092;28;20159;-70
2022/06/22 11:39:02;;;;;;;4.78;3.30;;;27.20;99.90;;;;;;5092933;28;20164;-70
2022/06/22 11:41:54;;;;;;;5.88;3.92;;;27.70;99.90;;;;;;5051602;28;20532;-70
2022/06/22 11:44:22;;;;;;;10.23;4.10;;;27.30;99.90;;;;;;5092993;28;20332;-69
2022/06/22 11:46:52;;;;;;;5.40;3.53;;;27.80;99.90;;;;;;5091981;28;20180;-70
2022/06/22 11:49:47;;;;;;;8.35;3.67;;;27.70;99.90;;;;;;5092684;28;20180;-71
2022/06/22 11:52:34;;;;;;;4.72;3.15;;;27.40;99.90;;;;;;5092256;28;20575;-70
2022/06/22 11:55:18;;;;;;;8.38;3.63;;;27.50;99.90;;;;;;5092489;28;20654;-70
2022/06/22 11:58:20;;;;;;;4.70;4.28;;;27.20;99.90;;;;;;5092702;28;20183;-69
2022/06/22 12:00:58;;;;;;;8.15;3.45;;;26.50;99.90;;;;;;5092137;28;20182;-70
2022/06/22 12:03:38;;;;;;;7.38;3.80;;;26.50;99.90;;;;;;5092384;28;20182;-69
2022/06/22 12:06:35;;;;;;;6.60;3.10;;;27.30;99.90;;;;;;5092998;28;20180;-69
2022/06/22 12:09:11;;;;;;;4.85;3.22;;;27.60;99.90;;;;;;5092081;28;20203;-69
2022/06/22 12:12:13;;;;;;;4.75;3.15;;;26.60;99.90;;;;;;5092493;28;20172;-69
2022/06/22 12:15:16;;;;;;;5.03;3.10;;;26.30;99.90;;;;;;5092212;28;20255;-70
2022/06/22 12:18:06;;;;;;;6.10;3.00;;;26.50;99.90;;;;;;5092687;28;20216;-69
2022/06/22 12:20:44;;;;;;;5.93;3.20;;;26.70;99.90;;;;;;5093186;28;20310;-70
2022/06/22 12:23:34;;;;;;;7.03;3.85;;;26.90;99.90;;;;;;5091481;28;20344;-69
2022/06/22 12:26:18;;;;;;;4.18;3.45;;;26.90;99.90;;;;;;5092601;28;20179;-70
2022/06/22 12:29:14;;;;;;;4.22;3.20;;;26.60;99.90;;;;;;5091614;28;20221;-70
2022/06/22 12:31:47;;;;;;;7.35;3.28;;;26.50;99.90;;;;;;5092046;28;20249;-69
2022/06/22 12:34:29;;;;;;;5.80;2.70;;;26.80;99.90;;;;;;5092632;28;20217;-70
2022/06/22 12:36:58;;;;;;;4.97;3.13;;;27.00;99.90;;;;;;5092036;28;20168;-69
2022/06/22 12:39:26;;;;;;;4.55;2.90;;;26.60;99.90;;;;;;5092064;28;20176;-69
2022/06/22 12:42:15;;;;;;;4.82;2.80;;;26.70;99.90;;;;;;5091967;28;20176;-68
2022/06/22 12:44:59;;;;;;;4.20;3.20;;;26.70;99.90;;;;;;5091660;28;20207;-69
2022/06/22 12:47:51;;;;;;;8.57;2.80;;;26.50;99.90;;;;;;5092616;28;20203;-70
2022/06/22 12:50:47;;;;;;;7.25;2.95;;;26.50;99.90;;;;;;5091576;28;20175;-70
2022/06/22 12:53:24;;;;;;;10.68;3.22;;;26.40;99.90;;;;;;5092306;28;20276;-70
2022/06/22 12:56:15;;;;;;;3.95;2.70;;;26.60;99.90;;;;;;5091525;28;20627;-70
2022/06/22 12:59:15;;;;;;;3.80;2.53;;;26.60;99.90;;;;;;5091307;28;20285;-71
2022/06/22 13:01:42;;;;;;;3.85;2.50;;;26.70;99.90;;;;;;5091613;28;20199;-70
2022/06/22 13:04:14;;;;;;;4.38;2.17;;;26.80;99.90;;;;;;5091110;28;20690;-70
2022/06/22 13:06:48;;;;;;;4.32;2.50;;;26.70;99.90;;;;;;5091996;28;20172;-70
2022/06/22 13:09:14;;;;;;;6.10;2.40;;;26.90;99.90;;;;;;5090975;28;20160;-70
2022/06/22 13:11:43;;;;;;;5.63;2.65;;;27.20;99.90;;;;;;5092795;28;20166;-70
2022/06/22 13:14:18;;;;;;;4.75;3.38;;;27.20;99.90;;;;;;5095198;28;20217;-70
2022/06/22 13:16:52;;;;;;;5.72;2.50;;;27.30;99.90;;;;;;5095703;28;20242;-70
2022/06/22 13:19:53;;;;;;;4.75;2.50;;;26.90;99.90;;;;;;5094517;28;20328;-70
2022/06/22 13:22:43;;;;;;;4.07;2.25;;;26.80;99.90;;;;;;5094670;28;20183;-69
2022/06/22 13:25:46;;;;;;;2.85;2.13;;;26.70;99.90;;;;;;5094972;28;20227;-70
2022/06/22 13:28:20;;;;;;;4.40;2.15;;;26.80;99.90;;;;;;5094259;28;20295;-71
2022/06/22 13:30:57;;;;;;;7.20;2.10;;;26.90;99.90;;;;;;5095072;28;20202;-71
2022/06/22 13:33:48;;;;;;;7.78;2.25;;;26.90;99.90;;;;;;5095266;28;20183;-71
2022/06/22 13:36:23;;;;;;;5.30;2.20;;;26.80;99.90;;;;;;5095551;28;20217;-70
2022/06/22 13:39:13;;;;;;;6.50;2.25;;;26.50;99.90;;;;;;5094005;28;20164;-70
2022/06/22 13:41:45;;;;;;;5.95;2.25;;;26.40;99.90;;;;;;5093590;28;20172;-70
2022/06/22 13:45:02;;;;;;;5.50;2.35;;;26.30;99.90;;;;;;5095107;28;20229;-70
2022/06/22 13:48:18;;;;;;;3.60;2.00;;;26.50;99.90;;;;;;5092725;28;20183;-70
2022/06/22 13:51:19;;;;;;;4.03;2.25;;;26.70;99.90;;;;;;5094911;28;20266;-71
2022/06/22 13:53:59;;;;;;;4.85;2.10;;;26.90;99.90;;;;;;5094444;28;20170;-70
2022/06/22 13:56:56;;;;;;;5.22;2.22;;;26.80;99.90;;;;;;5094763;28;20164;-70
2022/06/22 13:59:45;;;;;;;3.15;2.15;;;26.60;99.90;;;;;;5093566;28;20264;-71
2022/06/22 14:02:39;;;;;;;3.95;2.10;;;26.60;99.90;;;;;;5094694;28;20195;-70